Time;durP1;ratioP1;P1;durP2;ratioP2;P2;SDS_P1;SDS_P2;PMS_P1;PMS_P2;Temp;Humidity;BMP_temperature;BMP_pressure;BME280_temperature;BME280_humidity;BME280_pressure;Samples;Min_cycle;Max_cycle;Signal;HPM_P1;HPM_P2
2021/12/20 00:02:23;;;;;;;14.45;5.15;;;;;;;4.96;80.29;101725.19;4985508;28;20125;-55
2021/12/20 00:04:52;;;;;;;15.35;5.13;;;;;;;4.98;80.68;101718.41;4984636;28;20552;-55
2021/12/20 00:07:20;;;;;;;15.40;5.30;;;;;;;4.99;80.41;101715.03;4988348;28;20092;-55
2021/12/20 00:09:46;;;;;;;12.75;4.82;;;;;;;4.99;80.81;101707.34;4986850;28;20129;-53
2021/12/20 00:12:13;;;;;;;12.82;5.03;;;;;;;4.99;79.82;101705.66;4986783;28;20047;-55
2021/12/20 00:14:40;;;;;;;13.07;3.45;;;;;;;5.02;80.50;101710.06;4987929;28;20749;-54
2021/12/20 00:17:06;;;;;;;15.43;5.72;;;;;;;5.03;79.75;101705.81;4988668;28;20767;-52
2021/12/20 00:19:33;;;;;;;17.55;6.85;;;;;;;5.03;79.88;101701.53;4988274;28;20686;-51
2021/12/20 00:22:00;;;;;;;16.27;6.18;;;;;;;5.05;80.49;101697.34;4988874;28;20058;-53
2021/12/20 00:24:27;;;;;;;13.30;4.75;;;;;;;5.06;79.98;101696.53;4987309;28;20050;-51
2021/12/20 00:26:54;;;;;;;17.52;5.45;;;;;;;5.07;80.16;101698.28;4989522;28;20050;-54
2021/12/20 00:29:21;;;;;;;15.45;5.68;;;;;;;5.07;79.77;101700.88;4988800;28;20530;-52
2021/12/20 00:31:47;;;;;;;15.25;5.13;;;;;;;5.06;79.73;101696.53;4989325;28;20050;-53
2021/12/20 00:34:14;;;;;;;17.85;5.85;;;;;;;5.07;80.29;101693.16;4990442;28;20096;-50
2021/12/20 00:36:40;;;;;;;15.77;5.25;;;;;;;5.08;80.42;101694.94;4987432;28;20054;-51
2021/12/20 00:41:54;;;;;;;16.63;5.68;;;;;;;5.08;79.69;101691.47;4990121;28;20085;-50
2021/12/20 00:44:20;;;;;;;15.50;5.70;;;;;;;5.08;80.46;101694.06;4988286;28;20474;-53
2021/12/20 00:46:53;;;;;;;17.08;5.80;;;;;;;5.07;80.02;101694.88;4990958;28;20042;-53
2021/12/20 00:49:20;;;;;;;16.25;5.03;;;;;;;5.07;80.08;101695.72;4989043;28;20450;-53
2021/12/20 00:51:47;;;;;;;17.60;5.88;;;;;;;5.06;79.61;101691.41;4990436;28;20038;-55
2021/12/20 00:54:13;;;;;;;16.40;5.38;;;;;;;5.08;79.59;101688.91;4989477;28;20057;-53
2021/12/20 00:56:40;;;;;;;18.13;6.45;;;;;;;5.07;79.77;101682.03;4989011;28;20054;-53
2021/12/20 00:59:07;;;;;;;18.13;5.95;;;;;;;5.06;80.29;101680.28;4983659;28;20112;-56
2021/12/20 01:01:34;;;;;;;17.98;6.60;;;;;;;5.06;80.39;101670.84;4985840;28;20042;-54
2021/12/20 01:04:01;;;;;;;16.55;6.13;;;;;;;5.05;80.41;101674.25;4988054;28;20667;-54
2021/12/20 01:06:28;;;;;;;17.88;6.97;;;;;;;5.06;79.69;101670.00;4988037;28;20414;-53
2021/12/20 01:08:54;;;;;;;19.17;5.43;;;;;;;5.05;79.25;101679.38;4989834;28;20050;-52
2021/12/20 01:11:25;;;;;;;17.92;6.05;;;;;;;5.06;79.66;101673.44;4991118;28;20137;-55
2021/12/20 01:13:53;;;;;;;22.67;6.88;;;;;;;5.05;80.42;101679.38;4988528;28;20054;-54
2021/12/20 01:16:30;;;;;;;16.25;6.57;;;;;;;5.05;79.58;101679.38;4986738;28;20050;-53
2021/12/20 01:18:57;;;;;;;22.25;6.18;;;;;;;5.04;79.48;101677.63;4987309;28;20080;-53
2021/12/20 01:21:25;;;;;;;18.30;6.18;;;;;;;5.04;80.16;101677.63;4984584;28;20046;-51
2021/12/20 01:23:52;;;;;;;20.77;6.70;;;;;;;5.05;80.08;101674.25;4985847;28;20046;-52
2021/12/20 01:26:19;;;;;;;15.55;5.68;;;;;;;5.05;79.85;101679.38;4988431;28;20098;-53
2021/12/20 01:28:45;;;;;;;25.33;6.70;;;;;;;5.06;79.83;101665.72;4983786;28;20499;-53
2021/12/20 01:31:12;;;;;;;21.10;6.38;;;;;;;5.06;80.02;101665.72;4985544;28;20137;-54
2021/12/20 01:33:40;;;;;;;22.88;7.57;;;;;;;5.07;79.90;101675.19;4987339;28;20049;-55
2021/12/20 01:36:06;;;;;;;18.52;6.10;;;;;;;5.06;80.09;101660.59;4986606;28;20053;-52
2021/12/20 01:38:33;;;;;;;21.70;6.75;;;;;;;5.05;80.00;101653.69;5000059;28;20136;-54
2021/12/20 01:41:00;;;;;;;16.40;6.38;;;;;;;5.04;79.72;101651.94;4985141;28;20104;-54
2021/12/20 01:43:26;;;;;;;20.88;6.22;;;;;;;5.03;80.52;101660.44;4986316;28;20058;-55
2021/12/20 01:45:53;;;;;;;19.15;5.93;;;;;;;5.04;80.16;101657.09;4984055;28;20046;-55
2021/12/20 01:48:21;;;;;;;21.95;6.60;;;;;;;5.05;79.63;101657.94;4987388;28;20046;-53
2021/12/20 01:51:17;;;;;;;23.42;6.53;;;;;;;5.06;79.56;101652.03;4986567;28;20069;-53
2021/12/20 01:53:37;;;;;;;21.13;5.85;;;;;;;5.05;79.75;101648.56;4985797;28;21261;-52
2021/12/20 01:56:05;;;;;;;22.92;6.65;;;;;;;5.04;79.52;101646.81;4982571;28;20081;-54
2021/12/20 01:58:32;;;;;;;21.08;7.15;;;;;;;5.04;80.23;101649.38;4985847;28;20054;-55
2021/12/20 02:01:20;;;;;;;19.42;6.97;;;;;;;5.05;79.69;101651.13;4987696;28;20046;-54
2021/12/20 02:03:51;;;;;;;20.67;6.10;;;;;;;5.04;80.00;101646.81;4986520;28;20101;-52
2021/12/20 02:06:31;;;;;;;22.25;7.05;;;;;;;5.05;79.88;101642.53;4984608;28;20062;-49
2021/12/20 02:09:00;;;;;;;16.27;5.00;;;;;;;5.05;79.52;101643.44;4987444;28;20062;-53
2021/12/20 02:11:28;;;;;;;25.80;6.80;;;;;;;5.05;79.53;101638.28;4983901;28;20748;-51
2021/12/20 02:13:55;;;;;;;22.73;7.25;;;;;;;5.05;80.19;101638.28;4984238;28;20047;-51
2021/12/20 02:16:23;;;;;;;22.48;6.95;;;;;;;5.04;79.68;101636.53;4985690;28;20494;-53
2021/12/20 02:18:49;;;;;;;18.52;6.50;;;;;;;5.05;80.10;101630.59;4986092;28;20047;-54
2021/12/20 02:21:16;;;;;;;20.25;6.20;;;;;;;5.05;80.00;101633.16;4984036;28;20096;-52
2021/12/20 02:23:45;;;;;;;23.23;8.13;;;;;;;5.04;79.22;101626.25;4987733;28;20077;-51
2021/12/20 02:26:14;;;;;;;16.60;6.28;;;;;;;5.07;79.76;101622.94;4998963;28;20565;-54
2021/12/20 02:28:45;;;;;;;20.45;6.57;;;;;;;5.08;79.87;101628.16;4986811;28;20097;-52
2021/12/20 02:37:01;;;;;;;16.65;5.75;;;;;;;5.06;80.27;101624.63;4985585;28;20081;-54
2021/12/20 02:39:28;;;;;;;;;;;;;;;5.00;79.67;101625.22;4984866;28;20054;-51
2021/12/20 02:41:54;;;;;;;15.40;5.75;;;;;;;5.05;79.41;101622.88;4983348;28;19954;-52
2021/12/20 02:44:23;;;;;;;19.20;6.10;;;;;;;5.07;80.18;101621.25;4986414;28;20112;-51
2021/12/20 02:47:05;;;;;;;17.35;5.78;;;;;;;5.06;79.34;101616.94;4985314;28;20042;-54
2021/12/20 02:49:32;;;;;;;20.13;6.72;;;;;;;5.06;79.03;101614.34;4987698;28;20133;-55
2021/12/20 02:52:04;;;;;;;17.58;5.20;;;;;;;5.07;79.60;101615.25;4984007;28;20094;-56
2021/12/20 02:54:31;;;;;;;18.77;6.22;;;;;;;5.07;80.28;101616.09;4983916;28;20054;-54
2021/12/20 02:56:59;;;;;;;18.20;6.60;;;;;;;5.06;79.22;101619.50;4985875;28;20047;-55
2021/12/20 02:59:26;;;;;;;17.88;7.28;;;;;;;5.06;79.47;101609.22;4987567;28;20050;-54
2021/12/20 03:01:59;;;;;;;20.55;6.38;;;;;;;5.09;79.94;101613.59;4985862;28;20050;-53
2021/12/20 03:04:26;;;;;;;19.55;7.45;;;;;;;5.09;80.16;101609.38;4985176;28;20104;-53
2021/12/20 03:06:57;;;;;;;16.77;4.88;;;;;;;5.11;79.33;101602.63;4986707;28;20424;-51
2021/12/20 03:09:29;;;;;;;21.83;7.43;;;;;;;5.10;80.10;101594.84;4983370;28;20131;-55
2021/12/20 03:11:58;;;;;;;24.00;5.82;;;;;;;5.10;79.29;101599.97;4981838;28;20491;-55
2021/12/20 03:14:32;;;;;;;21.42;7.30;;;;;;;5.08;79.20;101597.34;4986731;28;20065;-53
2021/12/20 03:16:59;;;;;;;19.52;6.18;;;;;;;5.08;79.82;101597.34;4983250;28;20364;-51
2021/12/20 03:19:27;;;;;;;20.35;6.03;;;;;;;5.08;79.63;101592.19;4985887;28;20058;-54
2021/12/20 03:21:55;;;;;;;22.00;6.72;;;;;;;5.10;79.09;101589.72;4987058;28;20046;-53
2021/12/20 03:24:22;;;;;;;20.25;6.35;;;;;;;5.08;79.92;101581.94;4984662;28;20050;-53
2021/12/20 03:26:49;;;;;;;22.52;7.47;;;;;;;5.11;80.16;101584.63;4985925;28;20043;-54
2021/12/20 03:29:16;;;;;;;24.02;7.43;;;;;;;5.12;80.28;101578.69;4982804;28;20109;-55
2021/12/20 03:31:43;;;;;;;21.33;6.70;;;;;;;5.13;79.75;101580.44;4982064;28;20093;-53
2021/12/20 03:34:10;;;;;;;18.35;6.10;;;;;;;5.13;79.98;101575.28;4987603;28;20066;-56
2021/12/20 03:36:37;;;;;;;20.52;6.00;;;;;;;5.13;80.05;101570.16;4985471;28;20096;-54
2021/12/20 03:39:06;;;;;;;21.17;6.07;;;;;;;5.16;79.38;101568.56;4986782;28;20054;-54
2021/12/20 03:41:34;;;;;;;18.80;5.78;;;;;;;5.17;79.26;101580.56;5001760;28;20050;-52
2021/12/20 03:44:01;;;;;;;21.33;7.40;;;;;;;5.15;79.75;101583.06;4990637;28;20058;-50
2021/12/20 03:46:27;;;;;;;22.50;6.43;;;;;;;5.17;79.93;101567.72;4988753;28;20464;-54
2021/12/20 03:48:54;;;;;;;19.98;6.47;;;;;;;5.20;79.18;101565.31;4990011;28;20461;-54
2021/12/20 03:51:20;;;;;;;17.55;5.93;;;;;;;5.20;80.27;101570.44;4987796;28;20524;-54
2021/12/20 03:53:47;;;;;;;19.42;5.75;;;;;;;5.21;79.39;101572.19;4986770;28;20055;-56
2021/12/20 03:56:14;;;;;;;16.65;6.60;;;;;;;5.21;80.28;101577.34;4989936;28;20893;-53
2021/12/20 03:58:40;;;;;;;21.50;6.22;;;;;;;5.21;79.02;101573.09;4987782;28;20112;-53
2021/12/20 04:01:10;;;;;;;21.48;6.68;;;;;;;5.22;79.26;101576.50;4987732;28;20109;-50
2021/12/20 04:03:38;;;;;;;16.00;5.97;;;;;;;5.19;79.83;101569.56;4990234;28;20062;-50
2021/12/20 04:06:07;;;;;;;18.70;6.10;;;;;;;5.18;79.89;101565.22;4988095;28;20074;-53
2021/12/20 04:08:35;;;;;;;19.23;6.03;;;;;;;5.19;79.19;101571.22;4990887;28;20100;-51
2021/12/20 04:11:02;;;;;;;19.27;5.88;;;;;;;5.17;79.58;101567.72;4986268;28;21446;-51
2021/12/20 04:13:29;;;;;;;20.83;5.30;;;;;;;5.15;79.56;101572.81;4990182;28;20437;-53
2021/12/20 04:15:56;;;;;;;22.88;6.57;;;;;;;5.13;80.02;101574.41;4989244;28;20051;-52
2021/12/20 04:18:24;;;;;;;21.95;6.00;;;;;;;5.13;79.14;101565.03;4988590;28;21636;-51
2021/12/20 04:20:51;;;;;;;25.73;7.63;;;;;;;5.11;79.77;101566.66;4987626;28;20038;-50
2021/12/20 04:23:17;;;;;;;21.92;7.00;;;;;;;5.10;79.14;101564.88;4986858;28;20062;-52
2021/12/20 04:25:44;;;;;;;22.70;6.72;;;;;;;5.09;79.33;101565.69;4986524;28;20056;-53
2021/12/20 04:28:11;;;;;;;25.50;8.60;;;;;;;5.09;79.85;101572.50;4983592;28;20104;-50
2021/12/20 04:30:38;;;;;;;27.95;8.60;;;;;;;5.10;80.01;101566.59;4988207;28;20104;-55
2021/12/20 04:33:04;;;;;;;32.65;9.57;;;;;;;5.11;79.22;101570.91;4988116;28;20079;-52
2021/12/20 04:35:31;;;;;;;20.75;7.78;;;;;;;5.12;79.36;101565.84;4988185;28;20077;-52
2021/12/20 04:37:59;;;;;;;28.48;8.27;;;;;;;5.13;79.30;101565.03;4988950;28;20096;-51
2021/12/20 04:40:27;;;;;;;25.05;6.82;;;;;;;5.14;80.05;101566.78;4986340;28;20418;-53
2021/12/20 04:42:56;;;;;;;25.58;8.70;;;;;;;5.13;79.41;101562.44;4985374;28;20042;-51
2021/12/20 04:45:24;;;;;;;25.17;7.28;;;;;;;5.12;79.41;101568.41;4987819;28;20089;-53
2021/12/20 04:47:51;;;;;;;27.95;8.95;;;;;;;5.14;79.20;101571.06;4989312;28;20112;-55
2021/12/20 04:50:18;;;;;;;25.23;7.35;;;;;;;5.13;79.79;101564.13;4987012;28;20046;-54
2021/12/20 04:52:45;;;;;;;27.10;8.73;;;;;;;5.12;80.27;101565.84;4988062;28;20050;-54
2021/12/20 04:55:13;;;;;;;27.42;8.57;;;;;;;5.13;80.06;101556.44;4983602;28;20093;-51
2021/12/20 04:57:42;;;;;;;24.85;9.00;;;;;;;5.13;80.30;101564.13;4987435;28;20112;-54
2021/12/20 05:00:14;;;;;;;26.17;8.95;;;;;;;5.14;79.68;101571.91;4986296;28;20096;-54
2021/12/20 05:02:40;;;;;;;32.88;8.23;;;;;;;5.17;80.17;101560.03;4987999;28;20418;-54
2021/12/20 05:05:09;;;;;;;28.05;9.43;;;;;;;5.14;80.03;101551.34;4986922;28;20581;-53
2021/12/20 05:07:38;;;;;;;29.38;9.18;;;;;;;5.14;79.61;101559.06;4986984;28;20053;-54
2021/12/20 05:10:11;;;;;;;26.50;8.52;;;;;;;5.14;79.11;101553.94;4987978;28;20050;-56
2021/12/20 05:12:38;;;;;;;30.08;8.40;;;;;;;5.16;79.50;101555.72;4987536;28;20050;-54
2021/12/20 05:15:05;;;;;;;28.90;8.30;;;;;;;5.14;79.54;101556.50;4987998;28;20050;-52
2021/12/20 05:17:32;;;;;;;28.55;8.48;;;;;;;5.15;80.00;101547.13;4987701;28;20534;-51
2021/12/20 05:19:59;;;;;;;28.75;9.85;;;;;;;5.12;79.97;101542.72;4988200;28;20145;-54
2021/12/20 05:22:26;;;;;;;30.00;9.07;;;;;;;5.13;79.09;101549.59;4984326;28;20105;-53
2021/12/20 05:24:52;;;;;;;31.27;8.45;;;;;;;5.11;79.39;101540.97;4985532;28;20100;-52
2021/12/20 05:27:19;;;;;;;27.05;9.38;;;;;;;5.11;80.11;101540.09;4987018;28;20112;-56
2021/12/20 05:29:47;;;;;;;26.38;8.80;;;;;;;5.11;79.65;101540.97;4986755;28;20561;-56
2021/12/20 05:32:14;;;;;;;24.60;8.02;;;;;;;5.13;80.14;101539.34;4989505;28;20042;-51
2021/12/20 05:34:41;;;;;;;24.98;7.93;;;;;;;5.13;79.99;101533.31;4987334;28;20125;-55
2021/12/20 05:37:08;;;;;;;22.23;8.10;;;;;;;5.10;79.85;101536.63;4989570;28;20046;-52
2021/12/20 05:39:34;;;;;;;30.58;7.97;;;;;;;5.09;80.01;101532.31;4988704;28;20097;-52
2021/12/20 05:42:01;;;;;;;24.80;8.55;;;;;;;5.10;79.73;101528.91;4988528;28;20046;-52
2021/12/20 05:44:27;;;;;;;21.83;7.15;;;;;;;5.10;79.16;101528.91;4986912;28;20054;-54
2021/12/20 05:46:54;;;;;;;27.52;7.65;;;;;;;5.13;79.44;101535.88;4985948;28;20054;-54
2021/12/20 05:49:20;;;;;;;24.15;7.68;;;;;;;5.12;79.83;101537.59;4989901;28;20057;-55
2021/12/20 05:51:47;;;;;;;26.27;7.40;;;;;;;5.11;79.58;101540.97;4988467;28;20109;-54
2021/12/20 05:54:14;;;;;;;22.15;7.80;;;;;;;5.12;79.74;101536.69;4988234;28;20360;-53
2021/12/20 05:56:41;;;;;;;23.85;7.07;;;;;;;5.10;79.29;101539.19;4985449;28;20050;-52
2021/12/20 05:59:07;;;;;;;22.92;7.60;;;;;;;5.10;79.97;101534.06;4986922;28;20058;-52
2021/12/20 06:01:34;;;;;;;21.50;6.88;;;;;;;5.08;79.48;101535.69;4987461;28;20046;-53
2021/12/20 06:04:01;;;;;;;25.25;7.18;;;;;;;5.09;79.87;101537.44;4988514;28;20121;-55
2021/12/20 06:06:29;;;;;;;22.73;7.88;;;;;;;5.05;79.53;101530.41;4990863;28;20050;-56
2021/12/20 06:08:55;;;;;;;21.75;7.28;;;;;;;5.05;80.28;101534.66;4988256;28;20089;-53
2021/12/20 06:11:24;;;;;;;24.10;6.97;;;;;;;5.03;80.14;101526.03;4986925;28;20050;-54
2021/12/20 06:13:51;;;;;;;23.40;7.57;;;;;;;5.04;80.23;101541.50;4987896;28;20109;-54
2021/12/20 06:16:18;;;;;;;28.00;7.15;;;;;;;5.02;80.08;101535.41;4988045;28;20466;-51
2021/12/20 06:18:45;;;;;;;24.65;6.82;;;;;;;5.03;79.73;101547.44;4989618;28;20062;-55
2021/12/20 06:21:12;;;;;;;22.10;7.38;;;;;;;5.01;79.94;101546.50;4988231;28;20588;-55
2021/12/20 06:23:38;;;;;;;25.02;7.38;;;;;;;5.01;79.68;101543.94;4988982;28;20774;-54
2021/12/20 06:26:05;;;;;;;21.70;7.20;;;;;;;4.99;79.82;101540.41;4984799;28;20046;-53
2021/12/20 06:28:32;;;;;;;24.05;6.50;;;;;;;4.97;80.35;101544.63;4989552;28;20101;-55
2021/12/20 06:30:58;;;;;;;20.33;6.72;;;;;;;4.97;80.01;101542.06;4986354;28;20494;-55
2021/12/20 06:33:25;;;;;;;23.15;6.60;;;;;;;4.97;80.43;101552.31;4986382;28;20049;-55
2021/12/20 06:35:53;;;;;;;18.48;6.05;;;;;;;4.96;80.44;101550.56;4985864;28;20046;-49
2021/12/20 06:38:21;;;;;;;20.90;4.65;;;;;;;4.96;79.96;101540.31;4987923;28;20556;-54
2021/12/20 06:40:51;;;;;;;21.15;6.68;;;;;;;4.97;80.91;101547.19;4982327;28;20050;-54
2021/12/20 06:43:18;;;;;;;14.55;5.32;;;;;;;4.96;80.17;101542.88;4984138;28;20046;-53
2021/12/20 06:45:46;;;;;;;20.42;6.05;;;;;;;4.95;80.18;101538.53;4985962;28;20612;-54
2021/12/20 06:48:13;;;;;;;16.98;5.03;;;;;;;4.97;80.52;101554.88;4986457;28;20476;-55
2021/12/20 06:50:39;;;;;;;14.52;4.47;;;;;;;4.96;80.44;101550.56;4981756;28;20058;-54
2021/12/20 06:53:06;;;;;;;19.00;5.13;;;;;;;4.96;80.46;101532.59;4981597;28;20731;-56
2021/12/20 06:55:34;;;;;;;14.50;4.93;;;;;;;4.97;81.15;101539.47;4983476;28;20148;-55
2021/12/20 06:58:01;;;;;;;17.25;5.38;;;;;;;4.97;80.70;101532.63;4987322;28;20046;-54
2021/12/20 07:00:29;;;;;;;16.67;5.28;;;;;;;4.96;80.95;101545.44;4983170;28;20062;-53
2021/12/20 07:02:56;;;;;;;15.50;4.80;;;;;;;4.97;81.25;101536.91;4985332;28;20046;-54
2021/12/20 07:05:23;;;;;;;14.38;5.05;;;;;;;4.98;81.02;101534.41;4986215;28;20145;-52
2021/12/20 07:07:50;;;;;;;10.07;3.75;;;;;;;4.99;81.09;101538.72;4983552;28;20057;-53
2021/12/20 07:10:16;;;;;;;13.88;5.30;;;;;;;5.01;80.79;101543.94;4985190;28;20062;-55
2021/12/20 07:12:43;;;;;;;13.40;3.75;;;;;;;5.02;80.86;101543.13;4982642;28;20113;-54
2021/12/20 07:15:12;;;;;;;13.80;4.38;;;;;;;5.05;80.28;101544.94;4983946;28;20046;-51
2021/12/20 07:17:41;;;;;;;13.73;4.97;;;;;;;5.05;80.24;101543.25;4986141;28;20549;-55
2021/12/20 07:20:09;;;;;;;10.18;4.13;;;;;;;5.05;80.96;101535.56;4988404;28;20046;-55
2021/12/20 07:22:36;;;;;;;10.65;3.33;;;;;;;5.06;81.12;101539.88;4985320;28;20112;-54
2021/12/20 07:25:04;;;;;;;10.60;4.65;;;;;;;5.07;81.08;101533.06;4987099;28;20057;-52
2021/12/20 07:27:31;;;;;;;10.35;3.63;;;;;;;5.05;80.73;101535.56;4985889;28;20050;-50
2021/12/20 07:29:58;;;;;;;9.55;3.70;;;;;;;5.06;81.05;101537.31;4981718;28;20054;-52
2021/12/20 07:32:25;;;;;;;10.85;3.92;;;;;;;5.07;80.35;101533.91;4988019;28;20042;-56
2021/12/20 07:34:51;;;;;;;10.35;4.20;;;;;;;5.08;80.53;101535.69;4984496;28;20050;-54
2021/12/20 07:37:18;;;;;;;9.63;3.83;;;;;;;5.09;80.52;101541.69;4988015;28;20117;-52
2021/12/20 07:39:44;;;;;;;10.07;3.55;;;;;;;5.10;80.53;101539.19;4984203;28;20065;-54
2021/12/20 07:42:11;;;;;;;10.75;3.47;;;;;;;5.10;80.90;101539.19;4987648;28;20105;-53
2021/12/20 07:44:38;;;;;;;11.60;4.60;;;;;;;5.12;80.60;101539.25;4984054;28;20101;-51
2021/12/20 07:47:05;;;;;;;8.77;4.05;;;;;;;5.13;81.25;101544.47;4985079;28;20117;-54
2021/12/20 07:49:34;;;;;;;9.45;3.63;;;;;;;5.16;80.69;101548.84;4986377;28;20042;-53
2021/12/20 07:52:01;;;;;;;12.68;4.05;;;;;;;5.17;80.91;101549.75;4986472;28;20426;-53
2021/12/20 07:54:27;;;;;;;8.23;4.00;;;;;;;5.16;80.44;101548.84;4983132;28;20739;-55
2021/12/20 07:56:56;;;;;;;12.50;4.53;;;;;;;5.18;80.18;101556.63;4980085;28;20066;-52
2021/12/20 07:59:23;;;;;;;11.15;4.03;;;;;;;5.20;80.39;101552.47;4986693;28;20101;-54
2021/12/20 08:01:50;;;;;;;9.32;3.20;;;;;;;5.20;81.24;101547.31;4981469;28;20054;-53
2021/12/20 08:04:17;;;;;;;10.13;3.78;;;;;;;5.20;80.33;101549.88;4978111;28;20047;-54
2021/12/20 08:06:45;;;;;;;7.93;3.20;;;;;;;5.20;80.90;101550.75;4982963;28;20101;-50
2021/12/20 08:09:14;;;;;;;6.60;2.92;;;;;;;5.20;80.51;101552.47;4982420;28;20054;-55
2021/12/20 08:11:42;;;;;;;9.60;5.53;;;;;;;5.18;80.53;101561.78;4981789;28;20049;-53
2021/12/20 08:14:09;;;;;;;7.28;2.92;;;;;;;5.16;80.16;101553.13;4978278;28;20480;-55
2021/12/20 08:16:36;;;;;;;4.72;3.03;;;;;;;5.13;80.83;101559.00;4980229;28;20042;-55
2021/12/20 08:19:03;;;;;;;6.70;2.83;;;;;;;5.12;80.97;101558.13;4977161;28;20055;-54
2021/12/20 08:21:29;;;;;;;4.72;2.65;;;;;;;5.12;80.85;101553.00;4977817;28;20105;-55
2021/12/20 08:23:56;;;;;;;7.07;3.05;;;;;;;5.10;81.17;101556.31;4980581;28;20062;-55
2021/12/20 08:26:26;;;;;;;5.18;2.58;;;;;;;5.06;81.09;101552.72;4984065;28;20129;-55
2021/12/20 08:28:56;;;;;;;6.22;2.65;;;;;;;5.05;80.86;101556.09;4983423;28;20046;-57
2021/12/20 08:31:23;;;;;;;7.03;2.33;;;;;;;5.05;80.98;101556.09;4982016;28;20054;-56
2021/12/20 08:33:50;;;;;;;6.40;2.67;;;;;;;5.03;80.98;101552.56;4983944;28;20104;-55
2021/12/20 08:36:16;;;;;;;4.68;2.92;;;;;;;5.04;80.25;101559.50;4981601;28;20059;-54
2021/12/20 08:38:43;;;;;;;5.05;2.72;;;;;;;5.03;80.61;101562.84;4985032;28;20058;-55
2021/12/20 08:41:11;;;;;;;4.38;2.83;;;;;;;5.01;81.17;101561.91;4985675;28;20104;-56
2021/12/20 08:43:39;;;;;;;8.35;3.00;;;;;;;5.05;81.18;101566.38;4987798;28;20042;-53
2021/12/20 08:46:06;;;;;;;5.65;2.15;;;;;;;5.05;80.92;101550.97;4986271;28;20046;-54
2021/12/20 08:48:33;;;;;;;7.70;2.72;;;;;;;5.07;80.94;101562.16;4985876;28;20039;-55
2021/12/20 08:51:01;;;;;;;7.15;3.42;;;;;;;5.07;80.85;101554.47;4987783;28;20050;-57
2021/12/20 08:53:28;;;;;;;7.93;3.15;;;;;;;5.07;80.59;101559.59;4983751;28;20042;-53
2021/12/20 08:55:56;;;;;;;5.53;2.85;;;;;;;5.09;81.32;101565.69;4985699;28;20047;-56
2021/12/20 08:58:24;;;;;;;6.28;2.67;;;;;;;5.09;80.99;101560.56;4985300;28;20046;-54
2021/12/20 09:00:51;;;;;;;10.63;2.78;;;;;;;5.09;80.55;101557.09;4988952;28;20046;-56
2021/12/20 09:03:18;;;;;;;5.20;2.60;;;;;;;5.08;80.93;101566.53;4988354;28;20250;-53
2021/12/20 09:05:46;;;;;;;9.52;2.25;;;;;;;5.05;80.75;101558.66;4988485;28;20379;-55
2021/12/20 09:08:16;;;;;;;8.18;2.78;;;;;;;5.07;80.72;101549.31;4987480;28;20046;-51
2021/12/20 09:10:43;;;;;;;5.20;2.70;;;;;;;5.06;80.87;101552.72;4988649;28;20049;-54
2021/12/20 09:13:09;;;;;;;6.70;2.35;;;;;;;5.01;80.88;101549.06;4985511;28;20058;-55
2021/12/20 09:15:36;;;;;;;5.63;2.25;;;;;;;5.01;80.65;101549.06;4985239;28;20062;-56
2021/12/20 09:18:04;;;;;;;4.22;1.85;;;;;;;4.99;80.44;101550.69;4981815;28;20711;-57
2021/12/20 09:20:32;;;;;;;3.97;2.38;;;;;;;4.97;80.92;101547.19;4982420;28;20050;-55
2021/12/20 09:23:08;;;;;;;8.20;2.83;;;;;;;4.97;80.62;101557.47;4977068;28;20042;-57
2021/12/20 09:25:38;;;;;;;3.50;1.38;;;;;;;4.95;80.45;101559.94;4980761;28;20093;-55
2021/12/20 09:28:08;;;;;;;2.72;1.38;;;;;;;4.94;80.28;101562.44;4983292;28;20226;-54
2021/12/20 09:30:37;;;;;;;3.20;1.45;;;;;;;4.92;80.20;101559.81;4979610;28;20092;-53
2021/12/20 09:33:04;;;;;;;4.35;2.17;;;;;;;4.93;80.44;101555.56;4980982;28;20042;-53
2021/12/20 09:35:33;;;;;;;3.92;1.45;;;;;;;4.94;80.57;101552.19;4983054;28;20050;-56
2021/12/20 09:38:01;;;;;;;2.38;1.52;;;;;;;4.96;80.44;101555.72;4981398;28;20148;-55
2021/12/20 09:40:33;;;;;;;9.77;1.75;;;;;;;4.98;81.09;101554.06;4986721;28;20498;-52
2021/12/20 09:43:04;;;;;;;2.83;1.10;;;;;;;5.00;80.65;101557.59;4984208;28;20039;-55
2021/12/20 09:45:31;;;;;;;3.13;1.63;;;;;;;5.01;80.69;101554.22;4986798;28;20109;-54
2021/12/20 09:47:59;;;;;;;4.90;1.83;;;;;;;5.03;80.46;101562.84;4982683;28;20109;-54
2021/12/20 09:50:26;;;;;;;3.47;1.33;;;;;;;5.04;80.42;101564.63;4984611;28;20097;-53
2021/12/20 09:52:53;;;;;;;3.53;1.95;;;;;;;5.04;80.70;101564.63;4982559;28;20055;-55
2021/12/20 09:55:20;;;;;;;4.10;1.80;;;;;;;5.05;80.50;101565.47;4984024;28;20084;-57
2021/12/20 09:57:49;;;;;;;4.22;1.75;;;;;;;5.09;80.35;101567.38;4987663;28;20047;-54
2021/12/20 10:00:19;;;;;;;3.17;2.05;;;;;;;5.08;80.23;101571.66;4987595;28;20057;-54
2021/12/20 10:02:47;;;;;;;3.15;1.55;;;;;;;5.11;80.90;101570.91;4985833;28;20054;-52
2021/12/20 10:05:17;;;;;;;7.15;2.00;;;;;;;5.10;80.75;101574.28;4985568;28;21077;-57
2021/12/20 10:07:50;;;;;;;3.10;1.38;;;;;;;5.10;80.82;101567.44;4985599;28;20052;-56
2021/12/20 10:10:39;;;;;;;4.18;1.65;;;;;;;5.09;80.26;101562.25;4986604;28;20054;-55
2021/12/20 10:13:07;;;;;;;5.78;1.63;;;;;;;5.12;80.22;101562.38;4984888;28;20042;-56
2021/12/20 10:15:37;;;;;;;4.45;1.73;;;;;;;5.14;80.76;101565.91;4984223;28;20053;-55
2021/12/20 10:18:10;;;;;;;;;;;;;;;5.11;80.31;101576.94;4981383;28;20054;-55
2021/12/20 10:20:37;;;;;;;3.20;1.83;;;;;;;5.19;80.33;101574.69;4981769;28;19928;-54
2021/12/20 10:23:13;;;;;;;6.95;0.70;;;;;;;5.20;79.97;101578.16;4983577;28;20418;-56
2021/12/20 10:25:42;;;;;;;5.40;1.38;;;;;;;5.17;79.71;101567.72;4983670;28;20057;-54
2021/12/20 10:28:12;;;;;;;1.75;1.40;;;;;;;5.17;79.62;101572.88;4987035;28;20055;-56
2021/12/20 10:30:41;;;;;;;;;;;;;;;5.10;79.80;101588.00;4983092;28;20514;-55
2021/12/20 10:33:16;;;;;;;5.13;1.80;;;;;;;5.16;79.93;101586.53;4984647;28;19929;-54
2021/12/20 10:35:49;;;;;;;4.57;1.88;;;;;;;5.19;80.01;101578.94;4982547;28;20054;-54
2021/12/20 10:38:30;;;;;;;5.45;1.35;;;;;;;5.18;79.05;101577.19;4987448;28;20109;-55
2021/12/20 10:41:03;;;;;;;6.43;1.38;;;;;;;5.21;79.80;101577.34;4983636;28;20054;-55
2021/12/20 10:43:36;;;;;;;5.70;1.77;;;;;;;5.21;79.46;101577.34;4983997;28;20097;-52
2021/12/20 10:46:15;;;;;;;5.07;1.38;;;;;;;5.23;79.04;101570.56;4985575;28;20050;-55
2021/12/20 10:48:45;;;;;;;4.97;1.20;;;;;;;5.22;79.46;101574.84;4985163;28;20112;-55
2021/12/20 10:51:23;;;;;;;4.55;1.50;;;;;;;5.21;79.25;101564.50;4978250;28;20054;-53
2021/12/20 10:53:59;;;;;;;4.72;1.75;;;;;;;5.24;78.97;101559.50;4980857;28;20494;-55
2021/12/20 10:56:28;;;;;;;9.52;2.72;;;;;;;5.23;78.55;101560.28;4979825;28;20054;-57
2021/12/20 10:58:56;;;;;;;5.32;1.63;;;;;;;5.22;79.30;101561.09;4979071;28;20050;-54
2021/12/20 11:04:20;;;;;;;4.47;2.55;;;;;;;5.21;78.91;101559.34;4985192;28;20447;-54
2021/12/20 11:07:03;;;;;;;4.60;1.85;;;;;;;5.19;79.33;101563.53;4984730;28;20053;-54
2021/12/20 11:09:34;;;;;;;9.52;2.22;;;;;;;5.19;78.89;101554.13;4980215;28;20078;-53
2021/12/20 11:12:05;;;;;;;9.00;1.83;;;;;;;5.20;79.18;101565.31;4981472;28;20054;-55
2021/12/20 11:14:34;;;;;;;7.97;2.22;;;;;;;5.16;77.75;101553.13;4981827;28;20073;-55
2021/12/20 11:17:08;;;;;;;6.10;1.50;;;;;;;5.11;77.62;101561.53;4981706;28;20666;-54
2021/12/20 11:19:38;;;;;;;9.00;1.48;;;;;;;5.10;77.42;101557.19;4978220;28;20047;-53
2021/12/20 11:22:09;;;;;;;10.85;1.25;;;;;;;5.09;77.43;101551.97;4982618;28;20465;-55
2021/12/20 11:24:40;;;;;;;6.75;1.45;;;;;;;5.09;77.36;101555.44;4979972;28;21394;-52
2021/12/20 11:27:16;;;;;;;5.25;1.70;;;;;;;5.10;77.28;101549.47;4980490;28;20074;-52
2021/12/20 11:29:44;;;;;;;6.60;1.77;;;;;;;5.08;77.86;101542.50;4982361;28;20128;-55
2021/12/20 11:32:11;;;;;;;7.40;1.70;;;;;;;5.09;77.57;101546.84;4985527;28;20054;-56
2021/12/20 11:34:41;;;;;;;4.15;1.80;;;;;;;5.14;77.90;101541.09;4980815;28;20097;-54
2021/12/20 11:37:11;;;;;;;4.15;2.63;;;;;;;5.14;77.47;101538.50;4973416;28;20053;-56
2021/12/20 11:39:39;;;;;;;17.48;3.10;;;;;;;5.16;77.54;101546.28;4978895;28;20105;-55
2021/12/20 11:42:07;;;;;;;9.88;2.40;;;;;;;5.13;76.36;101544.47;4975904;28;21623;-51
2021/12/20 11:44:37;;;;;;;12.25;2.42;;;;;;;5.15;77.60;101539.41;4978471;28;20043;-52
2021/12/20 11:47:08;;;;;;;10.27;2.78;;;;;;;5.17;76.61;101549.75;4977068;28;20477;-54